createdAt,value
2022-08-23T00:01:39.382Z,88.02
2022-08-23T00:04:11.553Z,87.40
2022-08-23T00:06:38.759Z,87.27
2022-08-23T00:09:06.435Z,87.90
2022-08-23T00:11:38.691Z,87.73
2022-08-23T00:14:24.548Z,87.88
2022-08-23T00:16:51.760Z,88.51
2022-08-23T00:19:20.259Z,88.08
2022-08-23T00:21:48.175Z,88.50
2022-08-23T00:24:15.747Z,87.23
2022-08-23T00:27:09.959Z,88.20
2022-08-23T00:29:40.247Z,87.66
2022-08-23T00:32:09.773Z,87.70
2022-08-23T00:34:37.894Z,89.26
2022-08-23T00:37:06.467Z,88.75
2022-08-23T00:39:33.464Z,89.95
2022-08-23T00:42:49.165Z,88.98
2022-08-23T00:45:38.991Z,88.99
2022-08-23T00:48:06.539Z,89.99
2022-08-23T00:50:41.634Z,90.14
2022-08-23T00:53:15.103Z,88.96
2022-08-23T00:55:44.390Z,90.03
2022-08-23T00:58:12.762Z,90.11
2022-08-23T01:00:39.529Z,89.55
2022-08-23T01:03:09.672Z,98.65
2022-08-23T01:05:47.797Z,99.59
2022-08-23T01:08:14.634Z,100.00
2022-08-23T01:10:48.459Z,100.00
2022-08-23T01:13:19.634Z,99.61
2022-08-23T01:15:50.935Z,99.92
2022-08-23T01:18:21.170Z,100.00
2022-08-23T01:21:13.530Z,100.00
2022-08-23T01:23:49.991Z,100.00
2022-08-23T01:26:21.779Z,95.62
2022-08-23T01:28:51.206Z,94.69
2022-08-23T01:31:19.227Z,94.02
2022-08-23T01:33:50.663Z,94.01
2022-08-23T01:36:17.934Z,91.93
2022-08-23T01:38:44.388Z,93.19
2022-08-23T01:41:11.243Z,91.76
2022-08-23T01:43:37.890Z,90.68
2022-08-23T01:46:14.988Z,90.93
2022-08-23T01:48:41.606Z,92.78
2022-08-23T01:51:08.276Z,92.17
2022-08-23T01:53:34.847Z,91.81
2022-08-23T01:56:04.620Z,90.16
2022-08-23T01:58:32.750Z,90.83
2022-08-23T02:00:59.620Z,92.58
2022-08-23T02:03:26.162Z,92.63
2022-08-23T02:08:57.750Z,92.35
2022-08-23T02:11:25.435Z,92.58
2022-08-23T02:13:54.147Z,93.44
2022-08-23T02:16:31.726Z,94.34
2022-08-23T02:18:58.410Z,93.93
2022-08-23T02:21:25.493Z,93.33
2022-08-23T02:23:52.353Z,93.72
2022-08-23T02:26:19.566Z,93.31
2022-08-23T02:28:46.658Z,94.45
2022-08-23T02:31:13.169Z,93.90
2022-08-23T02:33:40.575Z,93.70
2022-08-23T02:36:07.473Z,93.10
2022-08-23T02:38:33.966Z,94.41
2022-08-23T02:41:01.368Z,93.68
2022-08-23T02:43:27.850Z,93.13
2022-08-23T02:45:54.388Z,92.70
2022-08-23T02:48:20.883Z,91.95
2022-08-23T02:50:47.352Z,93.43
2022-08-23T02:53:13.816Z,92.88
2022-08-23T02:55:40.289Z,93.81
2022-08-23T02:58:06.780Z,92.89
2022-08-23T03:00:33.288Z,93.25
2022-08-23T03:02:59.785Z,91.97
2022-08-23T03:05:26.705Z,92.68
2022-08-23T03:07:53.303Z,91.91
2022-08-23T03:10:19.836Z,91.82
2022-08-23T03:12:46.354Z,92.26
2022-08-23T03:15:12.875Z,92.77
2022-08-23T03:17:40.041Z,91.76
2022-08-23T03:20:07.369Z,92.15
2022-08-23T03:22:34.439Z,92.92
2022-08-23T03:25:01.532Z,91.58
2022-08-23T03:27:28.224Z,91.76
2022-08-23T03:29:54.712Z,92.63
2022-08-23T03:32:21.262Z,92.56
2022-08-23T03:34:52.515Z,92.99
2022-08-23T03:37:19.259Z,93.70
2022-08-23T03:39:46.123Z,93.99
2022-08-23T03:42:12.666Z,93.76
2022-08-23T03:44:39.671Z,93.62
2022-08-23T03:47:06.219Z,93.51
2022-08-23T03:49:32.856Z,93.11
2022-08-23T03:52:00.376Z,92.64
2022-08-23T03:54:27.705Z,93.25
2022-08-23T03:57:03.225Z,92.65
2022-08-23T03:59:31.213Z,93.22
2022-08-23T04:02:00.912Z,93.62
2022-08-23T04:04:28.295Z,93.71
2022-08-23T04:06:55.144Z,93.36
2022-08-23T04:09:21.935Z,92.85
2022-08-23T04:11:48.713Z,94.14
2022-08-23T04:14:15.263Z,94.64
2022-08-23T04:16:41.792Z,93.72
2022-08-23T04:19:10.505Z,93.47
2022-08-23T04:21:38.197Z,92.35
2022-08-23T04:24:05.411Z,93.83
2022-08-23T04:26:33.666Z,93.88
2022-08-23T04:29:00.896Z,94.90
2022-08-23T04:31:28.171Z,93.69
2022-08-23T04:34:01.735Z,92.86
2022-08-23T04:36:34.735Z,93.75
2022-08-23T04:39:01.536Z,95.02
2022-08-23T04:41:46.566Z,93.92
2022-08-23T04:44:14.809Z,93.40
2022-08-23T04:46:43.694Z,94.21
2022-08-23T04:49:11.810Z,93.49
2022-08-23T04:51:38.787Z,92.90
2022-08-23T04:54:06.160Z,94.04
2022-08-23T04:56:32.711Z,93.55
2022-08-23T04:58:59.318Z,94.39
2022-08-23T05:01:26.123Z,93.48
2022-08-23T05:03:54.559Z,93.44
2022-08-23T05:06:22.058Z,93.44
2022-08-23T05:08:48.812Z,94.39
2022-08-23T05:11:15.536Z,93.94
2022-08-23T05:13:42.148Z,94.30
2022-08-23T05:16:08.676Z,93.89
2022-08-23T05:18:35.154Z,93.59
2022-08-23T05:21:02.228Z,93.99
2022-08-23T05:23:32.311Z,93.39
2022-08-23T05:26:00.116Z,93.60
2022-08-23T05:28:30.571Z,93.91
2022-08-23T05:31:07.154Z,94.99
2022-08-23T05:33:38.816Z,94.54
2022-08-23T05:36:06.113Z,93.80
2022-08-23T05:38:32.748Z,93.98
2022-08-23T05:41:02.127Z,93.38
2022-08-23T05:43:32.314Z,93.04
2022-08-23T05:46:03.774Z,93.12
2022-08-23T05:48:31.992Z,92.79
2022-08-23T05:51:08.593Z,92.62
2022-08-23T05:53:35.087Z,92.33
2022-08-23T05:56:21.752Z,91.83
2022-08-23T05:58:49.302Z,92.94
2022-08-23T06:01:16.703Z,92.63
2022-08-23T06:03:43.571Z,91.01
2022-08-23T06:06:10.667Z,89.19
2022-08-23T06:08:39.050Z,88.71
2022-08-23T06:11:16.158Z,90.05
2022-08-23T06:13:45.648Z,89.71
2022-08-23T06:16:14.384Z,88.75
2022-08-23T06:18:41.771Z,89.51
2022-08-23T06:21:11.240Z,88.50
2022-08-23T06:23:38.295Z,86.76
2022-08-23T06:26:23.599Z,87.21
2022-08-23T06:28:52.968Z,87.77
2022-08-23T06:31:40.993Z,88.53
2022-08-23T06:34:09.677Z,86.54
2022-08-23T06:36:37.297Z,86.24
2022-08-23T06:39:05.263Z,85.24
2022-08-23T06:41:31.830Z,84.49
2022-08-23T06:43:58.427Z,86.28
2022-08-23T06:46:28.226Z,85.39
2022-08-23T06:48:56.421Z,82.87
2022-08-23T06:51:26.625Z,83.84
2022-08-23T06:53:55.182Z,80.69
2022-08-23T06:56:25.379Z,81.05
2022-08-23T06:58:53.019Z,81.42
2022-08-23T07:01:48.814Z,80.70
2022-08-23T07:04:19.435Z,81.72
2022-08-23T07:06:46.238Z,81.44
2022-08-23T07:09:13.132Z,79.39
2022-08-23T07:11:40.146Z,79.88
2022-08-23T07:14:10.537Z,77.48
2022-08-23T07:16:43.754Z,74.64
2022-08-23T07:19:11.358Z,76.61
2022-08-23T07:21:38.382Z,74.02
2022-08-23T07:24:05.236Z,74.26
2022-08-23T07:26:32.196Z,72.79
2022-08-23T07:28:58.749Z,75.95
2022-08-23T07:31:30.939Z,75.63
2022-08-23T07:33:59.450Z,74.16
2022-08-23T07:36:28.851Z,73.93
2022-08-23T07:38:56.143Z,70.46
2022-08-23T07:41:30.987Z,68.51
2022-08-23T07:44:03.904Z,69.30
2022-08-23T07:46:31.803Z,73.51
2022-08-23T07:48:59.785Z,67.68
2022-08-23T07:51:28.044Z,68.82
2022-08-23T07:53:54.702Z,68.31
2022-08-23T07:56:21.680Z,67.10
2022-08-23T07:58:50.892Z,64.75
2022-08-23T08:01:20.558Z,62.91
2022-08-23T08:03:49.026Z,68.83
2022-08-23T08:06:21.570Z,62.78
2022-08-23T08:08:49.417Z,62.97
2022-08-23T08:11:19.150Z,64.07
2022-08-23T08:13:47.170Z,63.97
2022-08-23T08:16:36.835Z,64.99
2022-08-23T08:19:07.764Z,63.54
2022-08-23T08:21:35.415Z,59.27
2022-08-23T08:24:02.064Z,56.70
2022-08-23T08:26:28.945Z,58.29
2022-08-23T08:28:56.488Z,56.47
2022-08-23T08:31:24.474Z,56.77
2022-08-23T08:33:51.062Z,57.93
2022-08-23T08:36:51.959Z,54.10
2022-08-23T08:39:25.596Z,60.23
2022-08-23T08:42:19.705Z,56.89
2022-08-23T08:44:55.767Z,56.47
2022-08-23T08:47:25.363Z,53.21
2022-08-23T08:50:03.247Z,53.30
2022-08-23T08:52:36.933Z,54.93
2022-08-23T08:55:42.830Z,55.19
2022-08-23T08:58:19.503Z,56.69
2022-08-23T09:00:52.693Z,53.63
2022-08-23T09:03:23.351Z,52.18
2022-08-23T09:06:00.089Z,52.94
2022-08-23T09:08:47.738Z,54.14
2022-08-23T09:11:38.794Z,52.67
2022-08-23T09:14:17.092Z,54.62
2022-08-23T09:16:53.766Z,49.80
2022-08-23T09:19:23.583Z,49.95
2022-08-23T09:22:00.767Z,50.85
2022-08-23T09:24:28.340Z,54.45
2022-08-23T09:26:54.978Z,48.95
2022-08-23T09:29:33.390Z,50.28
2022-08-23T09:32:06.681Z,50.48
2022-08-23T09:34:35.110Z,51.32
2022-08-23T09:37:23.698Z,49.46
2022-08-23T09:40:17.846Z,49.86
2022-08-23T09:42:47.345Z,47.98
2022-08-23T09:45:33.109Z,50.29
2022-08-23T09:48:02.064Z,47.55
2022-08-23T09:50:30.954Z,46.68
2022-08-23T09:53:14.440Z,48.09
2022-08-23T09:55:44.817Z,52.36
2022-08-23T09:58:40.656Z,47.64
2022-08-23T10:01:38.662Z,48.28
2022-08-23T10:04:16.892Z,47.68
2022-08-23T10:06:46.103Z,47.67
2022-08-23T10:09:26.624Z,49.69
2022-08-23T10:11:55.223Z,50.65
2022-08-23T10:14:25.906Z,48.40
2022-08-23T10:17:12.447Z,47.96
2022-08-23T10:19:38.859Z,46.52
2022-08-23T10:22:27.738Z,47.15
2022-08-23T10:25:07.846Z,51.24
2022-08-23T10:28:20.668Z,46.61
2022-08-23T10:31:15.323Z,45.65
2022-08-23T10:34:00.714Z,44.74
2022-08-23T10:37:09.588Z,47.11
2022-08-23T10:39:45.410Z,43.55
2022-08-23T10:42:53.728Z,45.19
2022-08-23T10:45:33.212Z,42.20
2022-08-23T10:48:11.952Z,42.54
2022-08-23T10:50:56.241Z,42.00
2022-08-23T10:53:29.444Z,43.48
2022-08-23T10:56:03.901Z,42.25
2022-08-23T10:58:41.426Z,39.97
2022-08-23T11:01:12.992Z,43.60
2022-08-23T11:03:57.723Z,41.24
2022-08-23T11:06:36.372Z,40.05
2022-08-23T11:09:07.478Z,38.51
2022-08-23T11:11:42.374Z,37.33
2022-08-23T11:14:28.225Z,36.08
2022-08-23T11:17:01.039Z,36.32
2022-08-23T11:20:00.599Z,39.01
2022-08-23T11:22:30.391Z,36.02
2022-08-23T11:25:05.735Z,36.12
2022-08-23T11:27:36.878Z,34.89
2022-08-23T11:30:32.004Z,31.81
2022-08-23T11:33:14.560Z,30.05
2022-08-23T11:35:45.623Z,29.15
2022-08-23T11:38:12.990Z,26.74
2022-08-23T11:40:55.895Z,28.56
2022-08-23T11:43:28.090Z,28.49
2022-08-23T11:46:13.186Z,27.36
2022-08-23T11:48:45.237Z,27.81
2022-08-23T11:51:17.215Z,27.93
2022-08-23T11:53:49.695Z,28.06
2022-08-23T11:56:54.356Z,26.68
2022-08-23T11:59:41.822Z,28.56
2022-08-23T12:02:32.673Z,26.89
2022-08-23T12:05:02.784Z,26.36
2022-08-23T12:07:54.455Z,25.84
2022-08-23T12:10:44.160Z,26.76
2022-08-23T12:13:19.923Z,26.53
2022-08-23T12:16:28.813Z,26.43
2022-08-23T12:19:00.063Z,25.46
2022-08-23T12:21:27.944Z,26.69
2022-08-23T12:24:01.422Z,27.31
2022-08-23T12:26:45.558Z,27.98
2022-08-23T12:29:53.548Z,25.65
2022-08-23T12:32:47.578Z,28.99
2022-08-23T12:35:49.451Z,28.17
2022-08-23T12:38:54.248Z,26.06
2022-08-23T12:41:25.299Z,25.99
2022-08-23T12:44:08.692Z,27.40
2022-08-23T12:46:38.943Z,27.21
2022-08-23T12:49:24.764Z,26.94
2022-08-23T12:51:53.854Z,26.45
2022-08-23T12:54:24.160Z,25.34
2022-08-23T12:56:53.933Z,25.99
2022-08-23T12:59:37.526Z,26.44
2022-08-23T13:02:08.637Z,25.59
2022-08-23T13:04:38.548Z,27.71
2022-08-23T13:07:09.961Z,25.37
2022-08-23T13:09:41.130Z,26.86
2022-08-23T13:12:08.894Z,26.46
2022-08-23T13:14:37.512Z,26.43
2022-08-23T13:17:27.245Z,25.64
2022-08-23T13:20:16.871Z,26.65
2022-08-23T13:23:06.187Z,25.86
2022-08-23T13:25:39.321Z,27.61
2022-08-23T13:28:22.591Z,29.40
2022-08-23T13:31:01.634Z,25.80
2022-08-23T13:33:29.347Z,28.84
2022-08-23T13:36:16.291Z,27.57
2022-08-23T13:38:44.395Z,29.37
2022-08-23T13:41:26.524Z,29.91
2022-08-23T13:43:55.310Z,26.95
2022-08-23T13:46:22.244Z,27.87
2022-08-23T13:48:55.114Z,28.92
2022-08-23T13:51:42.499Z,29.07
2022-08-23T13:54:12.019Z,29.39
2022-08-23T13:56:48.322Z,28.13
2022-08-23T13:59:25.306Z,30.34
2022-08-23T14:02:01.642Z,26.85
2022-08-23T14:04:28.400Z,27.46
2022-08-23T14:06:54.918Z,32.95
2022-08-23T14:09:21.432Z,32.79
2022-08-23T14:11:52.859Z,28.39
2022-08-23T14:14:19.400Z,34.55
2022-08-23T14:16:45.984Z,27.98
2022-08-23T14:19:17.854Z,28.48
2022-08-23T14:22:00.115Z,30.66
2022-08-23T14:24:27.631Z,29.85
2022-08-23T14:26:56.297Z,28.14
2022-08-23T14:29:23.939Z,29.74
2022-08-23T14:31:52.076Z,26.97
2022-08-23T14:34:19.002Z,27.95
2022-08-23T14:39:32.436Z,28.25
2022-08-23T14:41:58.955Z,26.83
2022-08-23T14:44:28.988Z,27.10
2022-08-23T14:46:59.037Z,26.55
2022-08-23T14:49:25.483Z,26.67
2022-08-23T14:51:52.170Z,26.90
2022-08-23T14:54:24.052Z,27.31
2022-08-23T14:56:50.943Z,27.81
2022-08-23T14:59:17.591Z,30.45
2022-08-23T15:01:44.146Z,30.81
2022-08-23T15:04:11.781Z,28.08
2022-08-23T15:06:54.936Z,28.48
2022-08-23T15:09:27.711Z,28.65
2022-08-23T15:14:41.567Z,27.85
2022-08-23T15:17:08.062Z,27.83
2022-08-23T15:19:34.560Z,29.18
2022-08-23T15:22:06.524Z,27.10
2022-08-23T15:24:45.438Z,29.33
2022-08-23T15:27:12.465Z,28.03
2022-08-23T15:29:40.393Z,29.43
2022-08-23T15:32:06.955Z,27.93
2022-08-23T15:34:36.973Z,29.74
2022-08-23T15:37:06.562Z,27.84
2022-08-23T15:39:33.208Z,27.91
2022-08-23T15:41:59.660Z,25.99
2022-08-23T15:44:26.115Z,25.61
2022-08-23T15:46:54.630Z,29.08
2022-08-23T15:49:23.397Z,25.44
2022-08-23T15:51:49.860Z,27.55
2022-08-23T15:54:16.310Z,28.92
2022-08-23T15:56:50.267Z,27.18
2022-08-23T15:59:19.158Z,29.58
2022-08-23T16:01:45.887Z,27.31
2022-08-23T16:04:12.389Z,28.47
2022-08-23T16:06:40.126Z,26.43
2022-08-23T16:09:12.563Z,28.64
2022-08-23T16:11:43.165Z,30.10
2022-08-23T16:14:09.930Z,27.36
2022-08-23T16:16:38.841Z,27.69
2022-08-23T16:19:06.433Z,29.41
2022-08-23T16:21:35.027Z,27.17
2022-08-23T16:24:01.786Z,26.55
2022-08-23T16:26:34.928Z,26.00
2022-08-23T16:29:05.043Z,27.11
2022-08-23T16:31:38.885Z,25.96
2022-08-23T16:34:14.857Z,27.10
2022-08-23T16:36:46.155Z,28.68
2022-08-23T16:39:15.495Z,27.76
2022-08-23T16:41:42.162Z,27.35
2022-08-23T16:44:09.034Z,29.40
2022-08-23T16:46:35.641Z,28.79
2022-08-23T16:49:02.454Z,29.95
2022-08-23T16:51:28.947Z,27.41
2022-08-23T16:54:02.138Z,27.10
2022-08-23T16:56:33.498Z,28.53
2022-08-23T16:58:59.974Z,28.39
2022-08-23T17:01:27.595Z,26.51
2022-08-23T17:03:54.118Z,27.07
2022-08-23T17:06:21.119Z,25.69
2022-08-23T17:08:48.258Z,27.58
2022-08-23T17:11:18.395Z,29.77
2022-08-23T17:13:45.588Z,28.98
2022-08-23T17:16:12.172Z,31.69
2022-08-23T17:18:38.974Z,29.88
2022-08-23T17:21:06.723Z,31.69
2022-08-23T17:23:37.703Z,29.77
2022-08-23T17:26:08.443Z,31.74
2022-08-23T17:28:35.448Z,31.94
2022-08-23T17:31:01.904Z,32.38
2022-08-23T17:33:28.546Z,35.86
2022-08-23T17:35:55.004Z,34.59
2022-08-23T17:38:21.519Z,37.18
2022-08-23T17:40:48.140Z,38.43
2022-08-23T17:43:14.792Z,38.62
2022-08-23T17:45:46.362Z,39.85
2022-08-23T17:48:14.072Z,40.61
2022-08-23T17:50:42.057Z,44.52
2022-08-23T17:53:09.108Z,43.31
2022-08-23T17:55:35.982Z,42.02
2022-08-23T17:58:04.144Z,46.12
2022-08-23T18:00:32.431Z,45.41
2022-08-23T18:02:59.254Z,44.15
2022-08-23T18:05:27.437Z,41.79
2022-08-23T18:07:53.950Z,45.67
2022-08-23T18:10:20.745Z,46.81
2022-08-23T18:12:47.272Z,45.43
2022-08-23T18:15:13.779Z,47.89
2022-08-23T18:17:40.917Z,47.02
2022-08-23T18:20:10.220Z,48.71
2022-08-23T18:22:37.436Z,52.26
2022-08-23T18:25:09.182Z,50.62
2022-08-23T18:27:54.442Z,52.79
2022-08-23T18:30:21.112Z,54.58
2022-08-23T18:32:47.638Z,54.12
2022-08-23T18:35:14.151Z,53.27
2022-08-23T18:37:41.805Z,55.54
2022-08-23T18:40:10.265Z,56.59
2022-08-23T18:42:37.653Z,57.04
2022-08-23T18:45:05.446Z,57.89
2022-08-23T18:47:31.946Z,58.72
2022-08-23T18:49:58.503Z,58.48
2022-08-23T18:52:27.127Z,60.30
2022-08-23T18:54:59.120Z,60.56
2022-08-23T18:57:25.703Z,59.30
2022-08-23T18:59:52.211Z,59.93
2022-08-23T19:02:19.624Z,61.12
2022-08-23T19:04:46.310Z,61.40
2022-08-23T19:07:12.941Z,59.08
2022-08-23T19:09:39.523Z,61.23
2022-08-23T19:12:06.573Z,61.51
2022-08-23T19:14:35.537Z,62.35
2022-08-23T19:17:08.053Z,64.14
2022-08-23T19:19:35.033Z,62.27
2022-08-23T19:22:01.657Z,61.46
2022-08-23T19:24:28.720Z,62.45
2022-08-23T19:26:55.803Z,64.27
2022-08-23T19:29:22.326Z,61.95
2022-08-23T19:31:50.303Z,61.60
2022-08-23T19:34:20.747Z,64.66
2022-08-23T19:36:51.234Z,63.63
2022-08-23T19:39:27.518Z,66.00
2022-08-23T19:41:54.168Z,66.65
2022-08-23T19:44:21.407Z,63.39
2022-08-23T19:46:48.430Z,64.14
2022-08-23T19:49:15.097Z,66.67
2022-08-23T19:51:42.705Z,65.81
2022-08-23T19:54:12.093Z,67.60
2022-08-23T19:56:51.688Z,67.80
2022-08-23T19:59:24.489Z,66.72
2022-08-23T20:01:52.991Z,67.67
2022-08-23T20:04:21.118Z,66.33
2022-08-23T20:06:48.792Z,65.35
2022-08-23T20:09:16.123Z,66.58
2022-08-23T20:11:42.633Z,67.30
2022-08-23T20:14:10.043Z,65.61
2022-08-23T20:16:37.760Z,66.11
2022-08-23T20:19:08.787Z,66.52
2022-08-23T20:21:35.523Z,67.38
2022-08-23T20:24:02.116Z,68.38
2022-08-23T20:26:37.334Z,65.36
2022-08-23T20:29:05.557Z,68.06
2022-08-23T20:31:38.019Z,67.79
2022-08-23T20:34:06.026Z,68.08
2022-08-23T20:36:33.461Z,69.61
2022-08-23T20:39:01.229Z,69.65
2022-08-23T20:41:31.035Z,69.25
2022-08-23T20:44:01.547Z,69.49
2022-08-23T20:46:28.580Z,68.47
2022-08-23T20:48:57.734Z,67.88
2022-08-23T20:51:26.111Z,69.10
2022-08-23T20:53:52.827Z,70.20
2022-08-23T20:56:20.505Z,71.01
2022-08-23T20:58:47.555Z,70.33
2022-08-23T21:01:15.895Z,70.79
2022-08-23T21:03:43.220Z,71.88
2022-08-23T21:06:21.794Z,70.82
2022-08-23T21:08:50.307Z,70.89
2022-08-23T21:11:21.613Z,72.24
2022-08-23T21:13:48.571Z,71.09
2022-08-23T21:16:16.674Z,72.29
2022-08-23T21:18:44.045Z,72.47
2022-08-23T21:21:11.209Z,69.52
2022-08-23T21:23:38.290Z,71.15
2022-08-23T21:26:06.815Z,70.54
2022-08-23T21:28:34.470Z,73.43
2022-08-23T21:31:09.713Z,71.58
2022-08-23T21:33:39.993Z,73.13
2022-08-23T21:36:07.605Z,71.41
2022-08-23T21:38:34.385Z,73.38
2022-08-23T21:41:05.136Z,72.13
2022-08-23T21:43:32.891Z,72.98
2022-08-23T21:45:59.441Z,74.63
2022-08-23T21:48:26.154Z,73.61
2022-08-23T21:50:52.655Z,73.27
2022-08-23T21:53:19.967Z,73.79
2022-08-23T21:55:46.558Z,73.32
2022-08-23T21:58:13.562Z,74.09
2022-08-23T22:00:41.274Z,75.31
2022-08-23T22:03:09.086Z,73.43
2022-08-23T22:05:43.836Z,75.17
2022-08-23T22:08:14.267Z,75.38
2022-08-23T22:10:44.831Z,75.17
2022-08-23T22:13:23.710Z,75.38
2022-08-23T22:15:50.225Z,76.41
2022-08-23T22:18:16.701Z,74.24
2022-08-23T22:20:43.560Z,73.71
2022-08-23T22:23:10.364Z,73.45
2022-08-23T22:25:36.869Z,73.98
2022-08-23T22:28:03.620Z,74.76
2022-08-23T22:30:30.127Z,75.27
2022-08-23T22:32:56.775Z,76.14
2022-08-23T22:35:23.367Z,77.10
2022-08-23T22:38:12.245Z,77.16
2022-08-23T22:40:36.439Z,76.60
2022-08-23T22:43:03.115Z,76.76
2022-08-23T22:45:29.598Z,76.82
2022-08-23T22:47:56.114Z,76.96
2022-08-23T22:50:22.571Z,77.73
2022-08-23T22:52:49.027Z,78.85
2022-08-23T22:55:15.589Z,77.71
2022-08-23T22:57:42.067Z,79.03
2022-08-23T23:00:09.673Z,78.64
2022-08-23T23:02:37.873Z,79.47
2022-08-23T23:05:05.282Z,80.17
2022-08-23T23:07:50.377Z,79.86
2022-08-23T23:10:17.023Z,80.13
2022-08-23T23:12:43.472Z,80.31
2022-08-23T23:15:10.299Z,80.08
2022-08-23T23:17:36.842Z,79.46
2022-08-23T23:20:23.071Z,79.88
2022-08-23T23:22:51.399Z,79.25
2022-08-23T23:25:18.189Z,79.13
2022-08-23T23:27:45.177Z,79.46
2022-08-23T23:30:12.169Z,80.04
2022-08-23T23:32:38.665Z,80.72
2022-08-23T23:35:07.267Z,79.27
2022-08-23T23:37:33.768Z,79.38
2022-08-23T23:40:00.367Z,81.40
2022-08-23T23:42:27.164Z,80.38
2022-08-23T23:44:53.711Z,79.37
2022-08-23T23:47:20.158Z,80.93
2022-08-23T23:49:47.361Z,81.56
2022-08-23T23:52:13.859Z,82.17
2022-08-23T23:54:41.268Z,81.50
2022-08-23T23:57:07.941Z,82.31
2022-08-23T23:59:35.523Z,81.82
